sensor_id;sensor_type;location;lat;lon;timestamp;pressure;altitude;pressure_sealevel;temperature;humidity
48244;BME280;34053;51.088;6.572;2022-07-23T00:02:24;101216.91;;;20.87;56.40
48244;BME280;34053;51.088;6.572;2022-07-23T00:04:55;101220.72;;;20.83;56.24
48244;BME280;34053;51.088;6.572;2022-07-23T00:07:25;101219.00;;;20.82;56.41
48244;BME280;34053;51.088;6.572;2022-07-23T00:09:56;101214.81;;;20.78;56.36
48244;BME280;34053;51.088;6.572;2022-07-23T00:12:26;101217.56;;;20.76;56.22
48244;BME280;34053;51.088;6.572;2022-07-23T00:14:57;101215.00;;;20.74;56.35
48244;BME280;34053;51.088;6.572;2022-07-23T00:17:27;101217.78;;;20.73;56.41
48244;BME280;34053;51.088;6.572;2022-07-23T00:19:58;101209.69;;;20.74;56.45
48244;BME280;34053;51.088;6.572;2022-07-23T00:22:29;101217.69;;;20.74;56.42
48244;BME280;34053;51.088;6.572;2022-07-23T00:24:59;101205.44;;;20.70;56.52
48244;BME280;34053;51.088;6.572;2022-07-23T00:27:30;101206.41;;;20.69;56.74
48244;BME280;34053;51.088;6.572;2022-07-23T00:30:00;101202.88;;;20.69;56.33
48244;BME280;34053;51.088;6.572;2022-07-23T00:32:31;101208.31;;;20.67;56.41
48244;BME280;34053;51.088;6.572;2022-07-23T00:35:02;101205.66;;;20.67;56.82
48244;BME280;34053;51.088;6.572;2022-07-23T00:37:32;101209.25;;;20.66;56.58
48244;BME280;34053;51.088;6.572;2022-07-23T00:40:03;101203.94;;;20.66;56.70
48244;BME280;34053;51.088;6.572;2022-07-23T00:42:34;101201.38;;;20.65;56.78
48244;BME280;34053;51.088;6.572;2022-07-23T00:45:05;101196.09;;;20.63;56.68
48244;BME280;34053;51.088;6.572;2022-07-23T00:47:36;101208.72;;;20.61;56.49
48244;BME280;34053;51.088;6.572;2022-07-23T00:50:09;101214.03;;;20.61;56.80
48244;BME280;34053;51.088;6.572;2022-07-23T00:52:40;101221.06;;;20.62;56.97
48244;BME280;34053;51.088;6.572;2022-07-23T00:55:11;101221.25;;;20.59;57.11
48244;BME280;34053;51.088;6.572;2022-07-23T00:57:42;101215.94;;;20.59;56.34
48244;BME280;34053;51.088;6.572;2022-07-23T01:00:14;101220.50;;;20.57;57.27
48244;BME280;34053;51.088;6.572;2022-07-23T01:02:45;101219.66;;;20.56;57.08
48244;BME280;34053;51.088;6.572;2022-07-23T01:05:16;101218.78;;;20.56;56.99
48244;BME280;34053;51.088;6.572;2022-07-23T01:07:51;101218.00;;;20.54;56.98
48244;BME280;34053;51.088;6.572;2022-07-23T01:10:23;101214.59;;;20.52;57.21
48244;BME280;34053;51.088;6.572;2022-07-23T01:13:08;101217.25;;;20.52;57.36
48244;BME280;34053;51.088;6.572;2022-07-23T01:15:39;101216.38;;;20.51;57.17
48244;BME280;34053;51.088;6.572;2022-07-23T01:18:09;101224.50;;;20.50;57.32
48244;BME280;34053;51.088;6.572;2022-07-23T01:20:41;101228.97;;;20.49;57.32
48244;BME280;34053;51.088;6.572;2022-07-23T01:23:11;101219.25;;;20.48;57.52
48244;BME280;34053;51.088;6.572;2022-07-23T01:25:49;101216.88;;;20.43;57.43
48244;BME280;34053;51.088;6.572;2022-07-23T01:28:22;101212.50;;;20.42;57.79
48244;BME280;34053;51.088;6.572;2022-07-23T01:30:53;101212.50;;;20.42;57.25
48244;BME280;34053;51.088;6.572;2022-07-23T01:33:23;101202.78;;;20.41;57.73
48244;BME280;34053;51.088;6.572;2022-07-23T01:35:53;101206.38;;;20.40;57.88
48244;BME280;34053;51.088;6.572;2022-07-23T01:38:24;101206.38;;;20.40;57.92
48244;BME280;34053;51.088;6.572;2022-07-23T01:40:57;101202.22;;;20.36;57.92
48244;BME280;34053;51.088;6.572;2022-07-23T01:43:31;101204.09;;;20.34;57.91
48244;BME280;34053;51.088;6.572;2022-07-23T01:46:01;101200.66;;;20.32;58.00
48244;BME280;34053;51.088;6.572;2022-07-23T01:48:32;101195.63;;;20.27;57.98
48244;BME280;34053;51.088;6.572;2022-07-23T01:51:02;101194.94;;;20.24;58.11
48244;BME280;34053;51.088;6.572;2022-07-23T01:53:33;101190.66;;;20.21;58.20
48244;BME280;34053;51.088;6.572;2022-07-23T01:56:04;101183.50;;;20.22;58.40
48244;BME280;34053;51.088;6.572;2022-07-23T01:58:35;101189.06;;;20.19;57.89
48244;BME280;34053;51.088;6.572;2022-07-23T02:01:05;101188.28;;;20.17;58.05
48244;BME280;34053;51.088;6.572;2022-07-23T02:03:36;101187.59;;;20.13;58.01
48244;BME280;34053;51.088;6.572;2022-07-23T02:06:06;101195.50;;;20.15;58.33
48244;BME280;34053;51.088;6.572;2022-07-23T02:08:37;101192.06;;;20.12;58.32
48244;BME280;34053;51.088;6.572;2022-07-23T02:11:07;101198.38;;;20.11;58.58
48244;BME280;34053;51.088;6.572;2022-07-23T02:13:38;101198.53;;;20.08;58.52
48244;BME280;34053;51.088;6.572;2022-07-23T02:16:08;101187.97;;;20.07;58.59
48244;BME280;34053;51.088;6.572;2022-07-23T02:18:39;101194.31;;;20.04;58.78
48244;BME280;34053;51.088;6.572;2022-07-23T02:21:09;101189.31;;;20.00;58.59
48244;BME280;34053;51.088;6.572;2022-07-23T02:23:40;101183.28;;;19.96;58.58
48244;BME280;34053;51.088;6.572;2022-07-23T02:26:10;101183.28;;;19.96;58.84
48244;BME280;34053;51.088;6.572;2022-07-23T02:28:41;101180.91;;;19.91;58.72
48244;BME280;34053;51.088;6.572;2022-07-23T02:31:11;101189.91;;;19.89;58.75
48244;BME280;34053;51.088;6.572;2022-07-23T02:33:42;101195.25;;;19.89;59.17
48244;BME280;34053;51.088;6.572;2022-07-23T02:36:12;101183.06;;;19.85;58.76
48244;BME280;34053;51.088;6.572;2022-07-23T02:38:43;101186.06;;;19.78;58.94
48244;BME280;34053;51.088;6.572;2022-07-23T02:41:13;101180.75;;;19.78;58.67
48244;BME280;34053;51.088;6.572;2022-07-23T02:43:43;101185.28;;;19.76;59.06
48244;BME280;34053;51.088;6.572;2022-07-23T02:46:14;101184.34;;;19.77;58.58
48244;BME280;34053;51.088;6.572;2022-07-23T02:48:48;101196.09;;;19.73;58.88
48244;BME280;34053;51.088;6.572;2022-07-23T02:51:18;101192.66;;;19.71;58.66
48244;BME280;34053;51.088;6.572;2022-07-23T02:53:49;101194.59;;;19.69;58.93
48244;BME280;34053;51.088;6.572;2022-07-23T02:56:19;101189.44;;;19.66;58.98
48244;BME280;34053;51.088;6.572;2022-07-23T02:58:52;101194.75;;;19.66;58.84
48244;BME280;34053;51.088;6.572;2022-07-23T03:01:23;101194.91;;;19.63;58.86
48244;BME280;34053;51.088;6.572;2022-07-23T03:03:56;101190.63;;;19.60;58.88
48244;BME280;34053;51.088;6.572;2022-07-23T03:06:27;101186.34;;;19.58;58.66
48244;BME280;34053;51.088;6.572;2022-07-23T03:08:57;101189.97;;;19.57;59.09
48244;BME280;34053;51.088;6.572;2022-07-23T03:11:28;101193.56;;;19.56;58.65
48244;BME280;34053;51.088;6.572;2022-07-23T03:13:58;101199.06;;;19.53;58.66
48244;BME280;34053;51.088;6.572;2022-07-23T03:16:29;101191.16;;;19.51;59.20
48244;BME280;34053;51.088;6.572;2022-07-23T03:18:59;101190.41;;;19.49;59.17
48244;BME280;34053;51.088;6.572;2022-07-23T03:21:32;101186.97;;;19.47;58.84
48244;BME280;34053;51.088;6.572;2022-07-23T03:24:04;101196.75;;;19.46;58.90
48244;BME280;34053;51.088;6.572;2022-07-23T03:26:35;101194.28;;;19.43;58.85
48244;BME280;34053;51.088;6.572;2022-07-23T03:29:05;101195.22;;;19.42;58.55
48244;BME280;34053;51.088;6.572;2022-07-23T03:31:36;101192.66;;;19.41;58.78
48244;BME280;34053;51.088;6.572;2022-07-23T03:34:06;101190.94;;;19.40;59.30
48244;BME280;34053;51.088;6.572;2022-07-23T03:36:36;101197.34;;;19.35;58.88
48244;BME280;34053;51.088;6.572;2022-07-23T03:39:07;101197.47;;;19.34;58.99
48244;BME280;34053;51.088;6.572;2022-07-23T03:41:38;101203.72;;;19.33;59.13
48244;BME280;34053;51.088;6.572;2022-07-23T03:44:08;101189.63;;;19.31;59.00
48244;BME280;34053;51.088;6.572;2022-07-23T03:46:45;101197.03;;;19.26;59.05
48244;BME280;34053;51.088;6.572;2022-07-23T03:49:16;101204.22;;;19.24;59.15
48244;BME280;34053;51.088;6.572;2022-07-23T03:51:46;101199.09;;;19.21;59.05
48244;BME280;34053;51.088;6.572;2022-07-23T03:54:17;101200.97;;;19.18;59.04
48244;BME280;34053;51.088;6.572;2022-07-23T03:56:47;101206.31;;;19.18;59.30
48244;BME280;34053;51.088;6.572;2022-07-23T03:59:18;101197.53;;;19.16;59.33
48244;BME280;34053;51.088;6.572;2022-07-23T04:01:51;101191.44;;;19.14;59.08
48244;BME280;34053;51.088;6.572;2022-07-23T04:04:25;101189.72;;;19.13;59.32
48244;BME280;34053;51.088;6.572;2022-07-23T04:06:55;101200.47;;;19.12;59.36
48244;BME280;34053;51.088;6.572;2022-07-23T04:09:26;101205.88;;;19.10;59.55
48244;BME280;34053;51.088;6.572;2022-07-23T04:11:56;101205.09;;;19.08;59.65
48244;BME280;34053;51.088;6.572;2022-07-23T04:14:29;101206.97;;;19.06;59.55
48244;BME280;34053;51.088;6.572;2022-07-23T04:17:00;101204.41;;;19.05;59.65
48244;BME280;34053;51.088;6.572;2022-07-23T04:19:31;101193.88;;;19.03;59.55
48244;BME280;34053;51.088;6.572;2022-07-23T04:22:01;101199.34;;;19.00;59.59
48244;BME280;34053;51.088;6.572;2022-07-23T04:24:35;101204.81;;;18.97;59.86
48244;BME280;34053;51.088;6.572;2022-07-23T04:27:06;101209.38;;;18.95;59.66
48244;BME280;34053;51.088;6.572;2022-07-23T04:29:36;101208.50;;;18.94;59.73
48244;BME280;34053;51.088;6.572;2022-07-23T04:32:07;101212.16;;;18.92;59.88
48244;BME280;34053;51.088;6.572;2022-07-23T04:34:40;101221.88;;;18.93;59.90
48244;BME280;34053;51.088;6.572;2022-07-23T04:37:13;101216.63;;;18.91;59.83
48244;BME280;34053;51.088;6.572;2022-07-23T04:39:43;101225.44;;;18.92;60.06
48244;BME280;34053;51.088;6.572;2022-07-23T04:42:14;101228.22;;;18.90;60.22
48244;BME280;34053;51.088;6.572;2022-07-23T04:44:45;101228.25;;;18.88;60.25
48244;BME280;34053;51.088;6.572;2022-07-23T04:47:15;101220.28;;;18.88;60.15
48244;BME280;34053;51.088;6.572;2022-07-23T04:49:46;101230.94;;;18.88;60.17
48244;BME280;34053;51.088;6.572;2022-07-23T04:52:19;101244.22;;;18.88;60.08
48244;BME280;34053;51.088;6.572;2022-07-23T04:54:50;101248.59;;;18.90;60.20
48244;BME280;34053;51.088;6.572;2022-07-23T04:57:23;101246.88;;;18.88;60.37
48244;BME280;34053;51.088;6.572;2022-07-23T04:59:54;101258.38;;;18.89;60.36
48244;BME280;34053;51.088;6.572;2022-07-23T05:02:24;101252.19;;;18.88;60.51
48244;BME280;34053;51.088;6.572;2022-07-23T05:04:55;101253.06;;;18.89;60.45
48244;BME280;34053;51.088;6.572;2022-07-23T05:07:25;101254.63;;;18.93;60.67
48244;BME280;34053;51.088;6.572;2022-07-23T05:09:56;101254.84;;;18.88;60.48
48244;BME280;34053;51.088;6.572;2022-07-23T05:12:27;101273.31;;;18.92;60.73
48244;BME280;34053;51.088;6.572;2022-07-23T05:14:57;101269.75;;;18.93;60.60
48244;BME280;34053;51.088;6.572;2022-07-23T05:17:28;101269.81;;;18.91;60.80
48244;BME280;34053;51.088;6.572;2022-07-23T05:19:58;101274.13;;;18.94;60.92
48244;BME280;34053;51.088;6.572;2022-07-23T05:22:32;101270.59;;;18.93;60.72
48244;BME280;34053;51.088;6.572;2022-07-23T05:25:03;101274.91;;;18.96;61.00
48244;BME280;34053;51.088;6.572;2022-07-23T05:27:35;101269.41;;;18.99;61.33
48244;BME280;34053;51.088;6.572;2022-07-23T05:30:06;101267.78;;;18.96;61.30
48244;BME280;34053;51.088;6.572;2022-07-23T05:32:37;101272.31;;;18.94;61.35
48244;BME280;34053;51.088;6.572;2022-07-23T05:35:11;101274.97;;;18.94;61.10
48244;BME280;34053;51.088;6.572;2022-07-23T05:37:42;101274.03;;;18.95;61.28
48244;BME280;34053;51.088;6.572;2022-07-23T05:40:12;101279.44;;;18.94;61.11
48244;BME280;34053;51.088;6.572;2022-07-23T05:42:43;101270.53;;;18.95;61.71
48244;BME280;34053;51.088;6.572;2022-07-23T05:45:13;101276.53;;;18.98;61.75
48244;BME280;34053;51.088;6.572;2022-07-23T05:47:48;101280.13;;;18.97;62.13
48244;BME280;34053;51.088;6.572;2022-07-23T05:50:19;101286.50;;;18.95;62.30
48244;BME280;34053;51.088;6.572;2022-07-23T05:52:49;101284.59;;;18.97;61.22
48244;BME280;34053;51.088;6.572;2022-07-23T05:55:20;101284.59;;;18.97;61.46
48244;BME280;34053;51.088;6.572;2022-07-23T05:57:50;101287.97;;;19.00;61.62
48244;BME280;34053;51.088;6.572;2022-07-23T06:00:21;101292.41;;;19.00;61.52
48244;BME280;34053;51.088;6.572;2022-07-23T06:02:51;101290.63;;;19.00;61.78
48244;BME280;34053;51.088;6.572;2022-07-23T06:05:23;101294.81;;;19.05;62.79
48244;BME280;34053;51.088;6.572;2022-07-23T06:07:54;101295.66;;;19.05;62.39
48244;BME280;34053;51.088;6.572;2022-07-23T06:10:25;101298.41;;;19.03;62.18
48244;BME280;34053;51.088;6.572;2022-07-23T06:12:56;101290.97;;;19.10;63.49
48244;BME280;34053;51.088;6.572;2022-07-23T06:15:26;101292.94;;;19.07;62.75
48244;BME280;34053;51.088;6.572;2022-07-23T06:17:57;101299.09;;;19.07;62.37
48244;BME280;34053;51.088;6.572;2022-07-23T06:20:27;101301.88;;;19.06;62.03
48244;BME280;34053;51.088;6.572;2022-07-23T06:22:58;101291.13;;;19.07;62.40
48244;BME280;34053;51.088;6.572;2022-07-23T06:25:28;101289.25;;;19.09;62.50
48244;BME280;34053;51.088;6.572;2022-07-23T06:28:02;101298.97;;;19.10;62.61
48244;BME280;34053;51.088;6.572;2022-07-23T06:30:33;101298.09;;;19.10;62.17
48244;BME280;34053;51.088;6.572;2022-07-23T06:33:04;101295.34;;;19.11;62.25
48244;BME280;34053;51.088;6.572;2022-07-23T06:35:34;101300.50;;;19.14;62.54
48244;BME280;34053;51.088;6.572;2022-07-23T06:38:05;101298.72;;;19.15;62.06
48244;BME280;34053;51.088;6.572;2022-07-23T06:40:36;101295.03;;;19.17;62.16
48244;BME280;34053;51.088;6.572;2022-07-23T06:43:06;101300.25;;;19.19;62.83
48244;BME280;34053;51.088;6.572;2022-07-23T06:45:38;101299.31;;;19.20;62.43
48244;BME280;34053;51.088;6.572;2022-07-23T06:48:15;101302.84;;;19.21;63.98
48244;BME280;34053;51.088;6.572;2022-07-23T06:50:46;101301.72;;;19.25;62.95
48244;BME280;34053;51.088;6.572;2022-07-23T06:53:28;101301.72;;;19.25;63.02
48244;BME280;34053;51.088;6.572;2022-07-23T06:55:59;101304.28;;;19.26;62.65
48244;BME280;34053;51.088;6.572;2022-07-23T06:58:29;101307.81;;;19.27;64.20
48244;BME280;34053;51.088;6.572;2022-07-23T07:01:03;101313.06;;;19.28;63.40
48244;BME280;34053;51.088;6.572;2022-07-23T07:03:36;101315.47;;;19.33;63.39
48244;BME280;34053;51.088;6.572;2022-07-23T07:06:09;101311.88;;;19.34;63.65
48244;BME280;34053;51.088;6.572;2022-07-23T07:08:40;101319.09;;;19.48;65.84
48244;BME280;34053;51.088;6.572;2022-07-23T07:11:13;101310.66;;;19.56;65.55
48244;BME280;34053;51.088;6.572;2022-07-23T07:13:43;101323.63;;;19.46;65.28
48244;BME280;34053;51.088;6.572;2022-07-23T07:16:14;101319.09;;;19.48;64.81
48244;BME280;34053;51.088;6.572;2022-07-23T07:18:47;101319.00;;;19.49;65.32
48244;BME280;34053;51.088;6.572;2022-07-23T07:21:18;101323.97;;;19.56;65.20
48244;BME280;34053;51.088;6.572;2022-07-23T07:23:48;101329.91;;;19.61;63.90
48244;BME280;34053;51.088;6.572;2022-07-23T07:26:22;101324.75;;;19.58;64.11
48244;BME280;34053;51.088;6.572;2022-07-23T07:28:53;101327.94;;;19.64;64.80
48244;BME280;34053;51.088;6.572;2022-07-23T07:31:26;101335.06;;;19.64;63.66
48244;BME280;34053;51.088;6.572;2022-07-23T07:34:00;101337.22;;;19.73;64.03
48244;BME280;34053;51.088;6.572;2022-07-23T07:36:33;101330.16;;;19.72;63.55
48244;BME280;34053;51.088;6.572;2022-07-23T07:39:06;101332.22;;;19.67;65.06
48244;BME280;34053;51.088;6.572;2022-07-23T07:41:40;101330.09;;;19.74;62.86
48244;BME280;34053;51.088;6.572;2022-07-23T07:44:14;101332.66;;;19.75;63.40
48244;BME280;34053;51.088;6.572;2022-07-23T07:46:44;101331.72;;;19.76;64.43
48244;BME280;34053;51.088;6.572;2022-07-23T07:49:15;101333.44;;;19.77;64.07
48244;BME280;34053;51.088;6.572;2022-07-23T07:51:47;101332.50;;;19.94;64.35
48244;BME280;34053;51.088;6.572;2022-07-23T07:54:19;101339.81;;;19.91;63.37
48244;BME280;34053;51.088;6.572;2022-07-23T07:56:52;101337.72;;;19.80;65.16
48244;BME280;34053;51.088;6.572;2022-07-23T07:59:23;101346.97;;;19.90;64.36
48244;BME280;34053;51.088;6.572;2022-07-23T08:01:59;101350.56;;;19.89;63.90
48244;BME280;34053;51.088;6.572;2022-07-23T08:04:30;101349.00;;;19.85;63.14
48244;BME280;34053;51.088;6.572;2022-07-23T08:07:03;101345.50;;;19.85;64.73
48244;BME280;34053;51.088;6.572;2022-07-23T08:09:34;101351.06;;;19.96;63.81
48244;BME280;34053;51.088;6.572;2022-07-23T08:12:08;101354.16;;;19.88;63.37
48244;BME280;34053;51.088;6.572;2022-07-23T08:14:38;101352.03;;;19.95;63.34
48244;BME280;34053;51.088;6.572;2022-07-23T08:17:13;101354.25;;;19.87;63.87
48244;BME280;34053;51.088;6.572;2022-07-23T08:19:43;101358.81;;;19.85;63.47
48244;BME280;34053;51.088;6.572;2022-07-23T08:22:14;101358.28;;;19.94;63.38
48244;BME280;34053;51.088;6.572;2022-07-23T08:24:44;101346.88;;;19.92;62.85
48244;BME280;34053;51.088;6.572;2022-07-23T08:27:15;101351.41;;;19.90;62.92
48244;BME280;34053;51.088;6.572;2022-07-23T08:29:46;101363.78;;;19.91;63.14
48244;BME280;34053;51.088;6.572;2022-07-23T08:32:19;101368.94;;;19.94;62.96
48244;BME280;34053;51.088;6.572;2022-07-23T08:34:50;101375.03;;;19.96;62.48
48244;BME280;34053;51.088;6.572;2022-07-23T08:37:21;101375.03;;;19.96;62.74
48244;BME280;34053;51.088;6.572;2022-07-23T08:39:52;101369.63;;;19.97;62.40
48244;BME280;34053;51.088;6.572;2022-07-23T08:42:25;101368.50;;;20.02;62.13
48244;BME280;34053;51.088;6.572;2022-07-23T08:44:56;101374.25;;;20.10;62.28
48244;BME280;34053;51.088;6.572;2022-07-23T08:47:30;101379.94;;;20.04;62.03
48244;BME280;34053;51.088;6.572;2022-07-23T08:50:01;101382.69;;;20.02;62.00
48244;BME280;34053;51.088;6.572;2022-07-23T08:52:36;101380.03;;;20.02;61.68
48244;BME280;34053;51.088;6.572;2022-07-23T08:55:09;101377.34;;;20.02;61.57
48244;BME280;34053;51.088;6.572;2022-07-23T08:57:48;101377.34;;;20.02;61.53
48244;BME280;34053;51.088;6.572;2022-07-23T09:00:22;101378.88;;;20.06;61.68
48244;BME280;34053;51.088;6.572;2022-07-23T09:02:53;101376.91;;;20.10;61.75
48244;BME280;34053;51.088;6.572;2022-07-23T09:05:24;101368.50;;;20.18;61.24
48244;BME280;34053;51.088;6.572;2022-07-23T09:08:08;101377.84;;;20.25;60.95
48244;BME280;34053;51.088;6.572;2022-07-23T09:10:57;101376.84;;;20.11;61.14
48244;BME280;34053;51.088;6.572;2022-07-23T09:13:50;101375.44;;;20.20;61.16
48244;BME280;34053;51.088;6.572;2022-07-23T09:16:30;101384.28;;;20.21;61.07
48244;BME280;34053;51.088;6.572;2022-07-23T09:19:06;101388.59;;;20.23;61.06
48244;BME280;34053;51.088;6.572;2022-07-23T09:21:38;101390.13;;;20.27;60.50
48244;BME280;34053;51.088;6.572;2022-07-23T09:24:12;101393.47;;;20.31;60.68
48244;BME280;34053;51.088;6.572;2022-07-23T09:26:47;101393.97;;;20.38;60.80
48244;BME280;34053;51.088;6.572;2022-07-23T09:32:00;101385.22;;;20.36;60.87
48244;BME280;34053;51.088;6.572;2022-07-23T09:34:36;101394.31;;;20.48;60.21
48244;BME280;34053;51.088;6.572;2022-07-23T09:37:14;101396.59;;;20.54;59.46
48244;BME280;34053;51.088;6.572;2022-07-23T09:39:47;101396.03;;;20.49;59.85
48244;BME280;34053;51.088;6.572;2022-07-23T09:42:25;101393.41;;;20.63;58.80
48244;BME280;34053;51.088;6.572;2022-07-23T09:44:57;101392.16;;;20.54;59.20
48244;BME280;34053;51.088;6.572;2022-07-23T09:47:31;101396.91;;;20.49;59.73
48244;BME280;34053;51.088;6.572;2022-07-23T09:50:03;101393.94;;;20.54;59.41
48244;BME280;34053;51.088;6.572;2022-07-23T09:52:46;101396.03;;;20.49;59.88
48244;BME280;34053;51.088;6.572;2022-07-23T09:55:43;101389.22;;;20.43;60.19
48244;BME280;34053;51.088;6.572;2022-07-23T09:58:17;101381.47;;;20.54;59.59
48244;BME280;34053;51.088;6.572;2022-07-23T10:00:54;101386.53;;;20.59;58.74
48244;BME280;34053;51.088;6.572;2022-07-23T10:03:53;101387.22;;;20.63;59.34
48244;BME280;34053;51.088;6.572;2022-07-23T10:06:56;101385.22;;;20.66;59.15
48244;BME280;34053;51.088;6.572;2022-07-23T10:12:04;101378.59;;;20.73;57.90
48244;BME280;34053;51.088;6.572;2022-07-23T10:14:41;101373.69;;;20.82;58.29
48244;BME280;34053;51.088;6.572;2022-07-23T10:17:16;101373.84;;;20.79;58.57
48244;BME280;34053;51.088;6.572;2022-07-23T10:19:47;101374.94;;;20.90;58.26
48244;BME280;34053;51.088;6.572;2022-07-23T10:22:24;101375.25;;;21.00;58.25
48244;BME280;34053;51.088;6.572;2022-07-23T10:25:41;101366.63;;;20.95;58.24
48244;BME280;34053;51.088;6.572;2022-07-23T10:28:22;101362.47;;;21.20;57.40
48244;BME280;34053;51.088;6.572;2022-07-23T10:37:16;101360.38;;;21.11;56.60
48244;BME280;34053;51.088;6.572;2022-07-23T10:40:19;101364.56;;;21.29;55.31
48244;BME280;34053;51.088;6.572;2022-07-23T10:42:52;101363.06;;;21.25;55.41
48244;BME280;34053;51.088;6.572;2022-07-23T10:45:35;101368.19;;;21.28;55.64
48244;BME280;34053;51.088;6.572;2022-07-23T10:51:13;101363.34;;;21.35;54.67
48244;BME280;34053;51.088;6.572;2022-07-23T10:59:26;101363.25;;;21.51;54.24
48244;BME280;34053;51.088;6.572;2022-07-23T11:02:30;101350.06;;;21.48;55.38
48244;BME280;34053;51.088;6.572;2022-07-23T11:05:13;101356.84;;;21.53;55.41
48244;BME280;34053;51.088;6.572;2022-07-23T11:13:51;101359.41;;;21.84;56.92
48244;BME280;34053;51.088;6.572;2022-07-23T11:16:24;101355.84;;;21.98;54.95
48244;BME280;34053;51.088;6.572;2022-07-23T11:19:00;101357.78;;;22.09;54.27
48244;BME280;34053;51.088;6.572;2022-07-23T11:24:13;101357.91;;;22.20;51.12
48244;BME280;34053;51.088;6.572;2022-07-23T11:26:55;101354.28;;;22.21;52.18
48244;BME280;34053;51.088;6.572;2022-07-23T11:29:42;101360.63;;;22.33;53.75
48244;BME280;34053;51.088;6.572;2022-07-23T11:32:30;101353.75;;;22.43;52.86
48244;BME280;34053;51.088;6.572;2022-07-23T11:35:28;101352.59;;;22.47;53.39
48244;BME280;34053;51.088;6.572;2022-07-23T11:38:25;101356.78;;;22.64;52.29
48244;BME280;34053;51.088;6.572;2022-07-23T11:41:13;101362.78;;;22.68;50.98
48244;BME280;34053;51.088;6.572;2022-07-23T11:43:49;101359.94;;;22.84;51.50
48244;BME280;34053;51.088;6.572;2022-07-23T11:46:26;101353.06;;;22.80;50.15
48244;BME280;34053;51.088;6.572;2022-07-23T11:49:43;101356.06;;;22.88;50.83
48244;BME280;34053;51.088;6.572;2022-07-23T11:52:14;101350.50;;;22.91;49.91
48244;BME280;34053;51.088;6.572;2022-07-23T11:54:54;101345.69;;;22.97;50.56
48244;BME280;34053;51.088;6.572;2022-07-23T11:57:39;101347.06;;;23.15;48.25
48244;BME280;34053;51.088;6.572;2022-07-23T12:00:18;101347.28;;;23.12;48.26
48244;BME280;34053;51.088;6.572;2022-07-23T12:03:00;101351.25;;;23.19;50.63
48244;BME280;34053;51.088;6.572;2022-07-23T12:05:59;101348.91;;;23.27;50.12
48244;BME280;34053;51.088;6.572;2022-07-23T12:09:22;101347.28;;;23.38;51.13
48244;BME280;34053;51.088;6.572;2022-07-23T12:16:19;101340.25;;;23.74;50.37
48244;BME280;34053;51.088;6.572;2022-07-23T12:19:12;101341.25;;;23.84;49.92
48244;BME280;34053;51.088;6.572;2022-07-23T12:21:49;101345.00;;;23.95;49.94
48244;BME280;34053;51.088;6.572;2022-07-23T12:25:12;101343.16;;;24.19;49.11
48244;BME280;34053;51.088;6.572;2022-07-23T12:30:54;101345.13;;;24.53;43.32
48244;BME280;34053;51.088;6.572;2022-07-23T12:33:50;101343.78;;;24.59;44.98
48244;BME280;34053;51.088;6.572;2022-07-23T12:36:37;101344.59;;;24.72;46.80
48244;BME280;34053;51.088;6.572;2022-07-23T12:39:10;101338.13;;;24.75;46.88
48244;BME280;34053;51.088;6.572;2022-07-23T12:41:53;101341.19;;;24.81;46.29
48244;BME280;34053;51.088;6.572;2022-07-23T12:44:24;101349.38;;;24.91;46.93
48244;BME280;34053;51.088;6.572;2022-07-23T12:47:02;101345.34;;;25.08;46.66
48244;BME280;34053;51.088;6.572;2022-07-23T12:49:45;101346.09;;;25.22;46.40
48244;BME280;34053;51.088;6.572;2022-07-23T12:52:25;101341.13;;;25.28;45.86
48244;BME280;34053;51.088;6.572;2022-07-23T12:54:58;101351.09;;;25.38;44.99
48244;BME280;34053;51.088;6.572;2022-07-23T12:57:47;101350.97;;;25.28;43.88
48244;BME280;34053;51.088;6.572;2022-07-23T13:04:29;101353.72;;;25.39;45.65
48244;BME280;34053;51.088;6.572;2022-07-23T13:07:16;101350.38;;;25.58;42.91
48244;BME280;34053;51.088;6.572;2022-07-23T13:10:11;101355.63;;;25.60;42.78
48244;BME280;34053;51.088;6.572;2022-07-23T13:17:13;101349.25;;;25.72;44.36
48244;BME280;34053;51.088;6.572;2022-07-23T13:27:51;101338.59;;;25.93;43.17
48244;BME280;34053;51.088;6.572;2022-07-23T13:30:51;101343.56;;;25.98;43.47
48244;BME280;34053;51.088;6.572;2022-07-23T13:33:23;101339.38;;;26.05;43.80
48244;BME280;34053;51.088;6.572;2022-07-23T13:35:57;101344.28;;;26.12;42.89
48244;BME280;34053;51.088;6.572;2022-07-23T13:38:45;101330.44;;;26.16;43.32
48244;BME280;34053;51.088;6.572;2022-07-23T13:41:50;101333.50;;;26.23;39.84
48244;BME280;34053;51.088;6.572;2022-07-23T13:44:21;101331.97;;;26.30;42.34
48244;BME280;34053;51.088;6.572;2022-07-23T13:46:54;101333.81;;;26.30;42.22
48244;BME280;34053;51.088;6.572;2022-07-23T13:52:21;101323.84;;;26.42;42.19
48244;BME280;34053;51.088;6.572;2022-07-23T13:54:54;101341.59;;;26.44;41.90
48244;BME280;34053;51.088;6.572;2022-07-23T13:57:24;101330.16;;;26.52;41.43
48244;BME280;34053;51.088;6.572;2022-07-23T14:00:22;101318.59;;;26.61;42.02
48244;BME280;34053;51.088;6.572;2022-07-23T14:02:53;101326.84;;;26.69;42.54
48244;BME280;34053;51.088;6.572;2022-07-23T14:05:44;101331.72;;;26.76;42.45
48244;BME280;34053;51.088;6.572;2022-07-23T14:08:25;101319.22;;;26.75;41.00
48244;BME280;34053;51.088;6.572;2022-07-23T14:10:59;101321.44;;;26.81;37.20
48244;BME280;34053;51.088;6.572;2022-07-23T14:13:32;101313.81;;;26.86;38.59
48244;BME280;34053;51.088;6.572;2022-07-23T14:16:13;101321.41;;;27.02;41.02
48244;BME280;34053;51.088;6.572;2022-07-23T14:19:21;101314.59;;;27.08;40.85
48244;BME280;34053;51.088;6.572;2022-07-23T14:22:28;101319.31;;;27.15;41.07
48244;BME280;34053;51.088;6.572;2022-07-23T14:24:59;101316.94;;;27.22;41.89
48244;BME280;34053;51.088;6.572;2022-07-23T14:27:55;101323.50;;;27.29;41.35